Time;durP1;ratioP1;P1;durP2;ratioP2;P2;SDS_P1;SDS_P2;PMS_P1;PMS_P2;Temp;Humidity;BMP_temperature;BMP_pressure;BME280_temperature;BME280_humidity;BME280_pressure;Samples;Min_cycle;Max_cycle;Signal;HPM_P1;HPM_P2
2023/01/19 00:02:20;;;;;;;103.43;99.32;;;1.80;95.90;;;;;;5046093;28;20068;-75
2023/01/19 00:04:46;;;;;;;104.78;100.68;;;1.80;96.10;;;;;;5046374;28;20589;-75
2023/01/19 00:07:11;;;;;;;102.30;98.20;;;1.80;95.90;;;;;;5046126;28;20032;-75
2023/01/19 00:09:38;;;;;;;105.40;101.20;;;1.80;95.80;;;;;;5047296;28;20167;-75
2023/01/19 00:12:05;;;;;;;101.25;97.25;;;1.80;95.80;;;;;;5047489;28;20033;-74
2023/01/19 00:14:31;;;;;;;102.13;98.13;;;1.80;95.80;;;;;;5047216;28;20029;-75
2023/01/19 00:16:56;;;;;;;104.50;100.45;;;1.80;95.80;;;;;;5047318;28;20032;-75
2023/01/19 00:19:22;;;;;;;106.55;102.45;;;1.80;95.80;;;;;;5029609;28;20029;-75
2023/01/19 00:21:48;;;;;;;106.78;102.68;;;1.80;95.80;;;;;;5029458;28;20485;-75
2023/01/19 00:24:14;;;;;;;106.00;101.90;;;1.80;95.80;;;;;;5012941;28;20047;-75
2023/01/19 00:26:41;;;;;;;104.53;100.53;;;1.80;95.80;;;;;;5045955;28;20092;-75
2023/01/19 00:29:09;;;;;;;108.78;104.57;;;1.80;95.80;;;;;;5048340;28;20029;-75
2023/01/19 00:31:35;;;;;;;105.15;101.10;;;1.70;95.80;;;;;;5051029;28;20097;-75
2023/01/19 00:34:01;;;;;;;100.80;96.90;;;1.70;95.80;;;;;;5051304;28;20029;-75
2023/01/19 00:36:27;;;;;;;104.85;100.82;;;1.70;95.80;;;;;;5049658;28;20033;-75
2023/01/19 00:38:52;;;;;;;105.05;101.05;;;1.70;95.80;;;;;;5051026;28;20023;-74
2023/01/19 00:42:38;;;;;;;104.00;100.00;;;1.60;95.80;;;;;;5049828;28;20599;-75
2023/01/19 00:44:04;;;;;;;101.63;97.72;;;1.60;95.70;;;;;;5050659;28;20028;-75
2023/01/19 00:46:30;;;;;;;106.43;102.35;;;1.50;95.70;;;;;;5050878;28;20482;-75
2023/01/19 00:48:56;;;;;;;103.82;99.82;;;1.50;95.70;;;;;;5033024;28;20059;-75
2023/01/19 00:51:22;;;;;;;105.00;101.00;;;1.50;95.70;;;;;;5032687;28;20395;-75
2023/01/19 00:53:47;;;;;;;103.35;99.38;;;1.50;95.80;;;;;;5050542;28;20084;-74
2023/01/19 00:56:13;;;;;;;105.75;101.65;;;1.40;95.70;;;;;;5050753;28;20036;-75
2023/01/19 00:58:39;;;;;;;105.97;101.88;;;1.40;95.80;;;;;;5050318;28;20083;-75
2023/01/19 01:01:04;;;;;;;101.22;97.32;;;1.40;95.80;;;;;;5050524;28;20393;-75
2023/01/19 01:03:31;;;;;;;104.20;100.20;;;1.40;95.80;;;;;;5016155;28;20048;-75
2023/01/19 01:05:57;;;;;;;102.43;98.45;;;1.40;95.80;;;;;;5016251;28;20032;-75
2023/01/19 01:08:23;;;;;;;101.53;97.60;;;1.40;95.80;;;;;;5049049;28;20515;-74
2023/01/19 01:10:49;;;;;;;102.32;98.38;;;1.30;95.80;;;;;;5049048;28;20029;-75
2023/01/19 01:13:15;;;;;;;103.95;99.95;;;1.40;95.80;;;;;;5050150;28;20382;-75
2023/01/19 01:15:42;;;;;;;106.18;102.10;;;1.40;95.90;;;;;;5016253;28;20393;-75
2023/01/19 01:18:08;;;;;;;106.22;102.13;;;1.40;95.90;;;;;;5050311;28;20025;-75
2023/01/19 01:20:35;;;;;;;102.55;98.65;;;1.40;95.90;;;;;;5032502;28;20056;-75
2023/01/19 01:23:02;;;;;;;100.32;96.45;;;1.40;95.90;;;;;;5048920;28;20035;-76
2023/01/19 01:25:29;;;;;;;100.57;96.70;;;1.50;95.90;;;;;;5048873;28;20036;-75
2023/01/19 01:27:55;;;;;;;100.82;97.03;;;1.50;95.90;;;;;;5048784;28;20060;-76
2023/01/19 01:30:22;;;;;;;96.65;92.95;;;1.60;95.90;;;;;;5050001;28;20025;-75
2023/01/19 01:32:48;;;;;;;99.28;95.47;;;1.60;95.90;;;;;;5031873;28;20080;-75
2023/01/19 01:35:14;;;;;;;98.28;94.57;;;1.60;95.90;;;;;;5048516;28;20405;-75
2023/01/19 01:37:44;;;;;;;97.63;93.93;;;1.60;95.90;;;;;;5048586;28;20031;-75
2023/01/19 01:40:13;;;;;;;97.32;93.63;;;1.60;95.80;;;;;;5032225;28;20218;-75
2023/01/19 01:42:39;;;;;;;100.63;96.82;;;1.70;95.80;;;;;;5048710;28;20060;-75
2023/01/19 01:45:26;;;;;;;99.95;96.15;;;1.70;95.90;;;;;;5049666;28;20367;-75
2023/01/19 01:47:54;;;;;;;98.63;94.88;;;1.70;95.90;;;;;;5048395;28;20052;-75
2023/01/19 01:50:23;;;;;;;95.90;92.22;;;1.70;95.80;;;;;;5031700;28;20057;-76
2023/01/19 01:52:57;;;;;;;99.63;95.82;;;1.70;95.80;;;;;;5049394;28;20048;-76
2023/01/19 01:55:24;;;;;;;94.07;90.47;;;1.70;95.80;;;;;;5049608;28;20021;-75
2023/01/19 01:57:59;;;;;;;99.22;95.43;;;1.80;95.80;;;;;;5049631;28;20448;-75
2023/01/19 02:00:25;;;;;;;91.95;88.45;;;1.80;95.80;;;;;;5049477;28;20020;-75
2023/01/19 02:02:50;;;;;;;92.05;88.55;;;1.80;95.90;;;;;;5048105;28;20082;-75
2023/01/19 02:05:33;;;;;;;90.28;86.88;;;1.80;95.90;;;;;;5049277;28;20022;-75
2023/01/19 02:13:49;;;;;;;89.55;86.15;;;1.80;95.90;;;;;;5049284;28;20554;-75
2023/01/19 02:16:16;;;;;;;87.13;83.82;;;1.80;95.90;;;;;;5049255;28;20489;-75
2023/01/19 02:18:44;;;;;;;89.15;85.75;;;1.90;96.00;;;;;;5047782;28;20029;-75
2023/01/19 02:21:18;;;;;;;89.25;85.85;;;1.90;95.90;;;;;;5048951;28;20024;-75
2023/01/19 02:23:50;;;;;;;90.93;87.50;;;1.90;95.90;;;;;;5049094;28;20028;-75
2023/01/19 02:26:34;;;;;;;90.03;86.63;;;1.90;95.90;;;;;;5048962;28;20048;-75
2023/01/19 02:29:07;;;;;;;87.75;84.45;;;1.90;95.90;;;;;;5047468;28;20036;-75
2023/01/19 02:31:34;;;;;;;91.68;88.18;;;1.90;95.90;;;;;;5047441;28;20103;-75
2023/01/19 02:34:01;;;;;;;92.70;89.20;;;1.90;95.90;;;;;;5047286;28;20057;-75
2023/01/19 02:36:37;;;;;;;88.28;84.97;;;1.90;95.90;;;;;;5047591;28;20017;-76
2023/01/19 02:39:04;;;;;;;90.03;86.63;;;1.90;95.90;;;;;;5047441;28;20025;-76
2023/01/19 02:41:36;;;;;;;89.10;85.80;;;1.90;95.90;;;;;;5030715;28;20029;-75
2023/01/19 02:44:04;;;;;;;86.05;82.85;;;1.90;95.90;;;;;;5048516;28;20032;-75
2023/01/19 02:46:31;;;;;;;88.05;84.75;;;2.00;95.90;;;;;;5047508;28;20464;-76
2023/01/19 02:48:57;;;;;;;;;;;2.00;95.90;;;;;;5047670;28;20473;-75
2023/01/19 02:51:23;;;;;;;87.40;84.10;;;2.00;95.90;;;;;;5046693;28;20003;-75
2023/01/19 02:54:07;;;;;;;88.25;84.95;;;1.90;96.00;;;;;;5048157;28;20033;-75
2023/01/19 02:56:45;;;;;;;90.25;86.93;;;2.00;95.90;;;;;;5047100;28;20055;-75
2023/01/19 02:59:26;;;;;;;83.13;80.03;;;2.00;95.90;;;;;;5046834;28;20083;-75
2023/01/19 03:02:10;;;;;;;85.28;82.07;;;2.00;96.10;;;;;;5048136;28;20088;-75
2023/01/19 03:04:43;;;;;;;79.45;76.45;;;2.00;95.90;;;;;;5046891;28;20112;-75
2023/01/19 03:07:27;;;;;;;82.70;79.60;;;2.10;95.90;;;;;;5048136;28;20060;-75
2023/01/19 03:10:14;;;;;;;81.18;78.18;;;2.10;96.00;;;;;;5048065;28;20071;-75
2023/01/19 03:13:13;;;;;;;83.33;80.23;;;2.10;95.90;;;;;;5046778;28;20075;-75
2023/01/19 03:15:48;;;;;;;82.15;79.15;;;2.10;95.90;;;;;;5033739;28;20033;-75
2023/01/19 03:18:16;;;;;;;77.95;75.05;;;2.10;95.90;;;;;;5046828;28;20037;-75
2023/01/19 03:20:44;;;;;;;79.50;76.60;;;2.10;95.90;;;;;;5046754;28;20035;-75
2023/01/19 03:23:12;;;;;;;84.75;81.65;;;2.10;95.90;;;;;;5047781;28;20102;-75
2023/01/19 03:25:43;;;;;;;79.72;76.75;;;2.10;95.90;;;;;;5046579;28;20024;-74
2023/01/19 03:28:09;;;;;;;77.45;74.55;;;2.20;95.90;;;;;;5047883;28;20017;-74
2023/01/19 03:30:37;;;;;;;;;;;2.20;95.90;;;;;;5030364;28;20385;-74
2023/01/19 03:33:10;;;;;;;77.82;74.93;;;2.20;95.90;;;;;;5047893;28;20319;-74
2023/01/19 03:35:43;;;;;;;75.63;72.82;;;2.10;95.80;;;;;;5048281;28;20017;-75
2023/01/19 03:38:17;;;;;;;74.15;71.35;;;2.10;95.90;;;;;;5048104;28;20028;-74
2023/01/19 03:40:46;;;;;;;75.30;72.50;;;2.10;95.90;;;;;;5047716;28;20032;-74
2023/01/19 03:43:14;;;;;;;72.10;69.40;;;2.10;95.90;;;;;;5046427;28;20025;-75
2023/01/19 03:45:41;;;;;;;74.97;72.18;;;2.10;95.80;;;;;;5046249;28;20025;-75
2023/01/19 03:48:07;;;;;;;74.57;71.78;;;2.10;95.80;;;;;;5047523;28;20052;-75
2023/01/19 03:50:33;;;;;;;79.55;76.57;;;2.10;95.80;;;;;;5047669;28;20256;-75
2023/01/19 03:53:07;;;;;;;76.25;73.40;;;2.10;95.80;;;;;;5046291;28;20037;-75
2023/01/19 03:55:35;;;;;;;76.70;73.80;;;2.00;95.80;;;;;;5046265;28;20025;-75
2023/01/19 03:58:01;;;;;;;74.60;71.80;;;2.00;95.80;;;;;;5046340;28;20098;-75
2023/01/19 04:00:27;;;;;;;70.65;68.03;;;2.00;95.80;;;;;;5046424;28;20427;-75
2023/01/19 04:02:54;;;;;;;74.75;71.95;;;2.00;96.10;;;;;;5046010;28;20095;-75
2023/01/19 04:05:20;;;;;;;;;;;2.00;95.90;;;;;;5033242;28;20029;-74
2023/01/19 04:07:48;;;;;;;69.70;67.10;;;2.00;95.90;;;;;;5050234;28;19915;-75
2023/01/19 04:10:15;;;;;;;72.25;69.55;;;2.00;95.80;;;;;;5051404;28;20033;-76
2023/01/19 04:12:41;;;;;;;75.70;72.90;;;2.00;95.90;;;;;;5033863;28;20473;-75
2023/01/19 04:15:07;;;;;;;76.93;74.13;;;2.00;95.90;;;;;;5033609;28;20029;-76
2023/01/19 04:17:33;;;;;;;71.93;69.25;;;2.00;95.90;;;;;;5050095;28;20029;-75
2023/01/19 04:19:59;;;;;;;71.53;68.88;;;2.00;95.80;;;;;;5016976;28;20116;-76
2023/01/19 04:22:25;;;;;;;72.85;70.15;;;2.00;95.80;;;;;;5051180;28;20021;-75
2023/01/19 04:24:50;;;;;;;72.22;69.53;;;2.00;95.80;;;;;;5051201;28;20510;-76
2023/01/19 04:27:17;;;;;;;68.30;65.80;;;2.00;95.80;;;;;;5033392;28;20037;-76
2023/01/19 04:29:43;;;;;;;75.05;72.28;;;2.00;95.80;;;;;;5051148;28;20115;-76
2023/01/19 04:32:08;;;;;;;74.90;72.13;;;2.00;95.80;;;;;;5049670;28;20033;-76
2023/01/19 04:34:34;;;;;;;68.47;65.97;;;1.90;95.80;;;;;;5033047;28;20106;-75
2023/01/19 04:37:00;;;;;;;71.53;68.90;;;2.00;95.80;;;;;;5049790;28;20036;-75
2023/01/19 04:39:26;;;;;;;71.80;69.13;;;2.00;95.80;;;;;;5049542;28;20439;-76
2023/01/19 04:41:52;;;;;;;70.22;67.63;;;2.00;95.80;;;;;;5032987;28;20127;-75
2023/01/19 04:44:18;;;;;;;;;;;1.90;95.80;;;;;;5051327;28;20025;-75
2023/01/19 04:46:44;;;;;;;68.40;65.88;;;1.90;95.80;;;;;;5049474;28;20338;-75
2023/01/19 04:49:09;;;;;;;67.03;64.53;;;1.90;95.80;;;;;;5049382;28;20102;-75
2023/01/19 04:51:35;;;;;;;66.35;63.85;;;1.90;95.80;;;;;;5050702;28;20048;-75
2023/01/19 04:54:02;;;;;;;72.45;69.75;;;1.90;95.80;;;;;;5050606;28;20048;-75
2023/01/19 04:56:28;;;;;;;69.75;67.15;;;1.90;95.80;;;;;;5050808;28;20103;-75
2023/01/19 04:58:54;;;;;;;67.95;65.45;;;1.80;95.80;;;;;;5032403;28;20461;-75
2023/01/19 05:01:20;;;;;;;67.70;65.20;;;1.80;95.80;;;;;;5032368;28;20125;-76
2023/01/19 05:03:45;;;;;;;67.80;65.30;;;1.80;95.80;;;;;;5050652;28;20025;-75
2023/01/19 05:06:11;;;;;;;70.05;67.45;;;1.80;95.80;;;;;;5049116;28;20399;-76
2023/01/19 05:08:38;;;;;;;70.63;68.03;;;1.80;95.80;;;;;;5050380;28;20462;-75
2023/01/19 05:11:03;;;;;;;69.55;66.95;;;1.80;95.80;;;;;;5049080;28;20041;-75
2023/01/19 05:13:29;;;;;;;67.30;64.80;;;1.80;95.80;;;;;;5032333;28;20029;-74
2023/01/19 05:15:55;;;;;;;68.75;66.25;;;1.80;95.80;;;;;;5048368;28;20044;-75
2023/01/19 05:18:21;;;;;;;63.72;61.38;;;1.80;95.80;;;;;;5032467;28;20021;-75
2023/01/19 05:20:46;;;;;;;67.03;64.53;;;1.80;95.80;;;;;;5048805;28;20056;-75
2023/01/19 05:23:12;;;;;;;66.32;63.85;;;1.80;95.80;;;;;;5050096;28;20029;-75
2023/01/19 05:25:38;;;;;;;71.13;68.53;;;1.70;95.80;;;;;;5048877;28;20116;-75
2023/01/19 05:28:03;;;;;;;69.85;67.25;;;1.70;95.70;;;;;;5048786;28;20041;-75
2023/01/19 05:30:29;;;;;;;70.38;67.78;;;1.60;95.70;;;;;;5032075;28;20040;-74
2023/01/19 05:32:55;;;;;;;72.53;69.82;;;1.70;95.70;;;;;;5049869;28;20371;-75
2023/01/19 05:35:21;;;;;;;71.80;69.20;;;1.60;95.70;;;;;;5048606;28;20382;-75
2023/01/19 05:37:47;;;;;;;70.80;68.20;;;1.50;95.70;;;;;;5048568;28;20037;-74
2023/01/19 05:40:13;;;;;;;69.53;66.93;;;1.50;95.70;;;;;;5048589;28;20112;-75
2023/01/19 05:42:39;;;;;;;70.03;67.43;;;1.50;95.70;;;;;;5031876;28;20119;-74
2023/01/19 05:45:05;;;;;;;74.32;71.63;;;1.40;95.70;;;;;;5048528;28;20079;-75
2023/01/19 05:47:31;;;;;;;73.50;70.80;;;1.40;95.70;;;;;;5031706;28;20033;-75
2023/01/19 05:49:56;;;;;;;70.60;68.00;;;1.40;95.80;;;;;;5031462;28;20029;-75
2023/01/19 05:52:23;;;;;;;75.05;72.28;;;1.30;95.70;;;;;;5048319;28;20435;-75
2023/01/19 05:54:50;;;;;;;72.68;69.97;;;1.30;95.80;;;;;;5031660;28;20493;-75
2023/01/19 05:57:17;;;;;;;71.05;68.45;;;1.30;95.80;;;;;;5031505;28;20047;-75
2023/01/19 05:59:43;;;;;;;75.43;72.63;;;1.30;95.70;;;;;;5049154;28;20033;-75
2023/01/19 06:02:09;;;;;;;74.88;72.07;;;1.30;95.70;;;;;;5031656;28;20024;-75
2023/01/19 06:04:35;;;;;;;74.82;72.05;;;1.30;95.80;;;;;;5048222;28;20106;-75
2023/01/19 06:07:01;;;;;;;69.90;67.30;;;1.20;95.70;;;;;;5031399;28;20468;-76
2023/01/19 06:09:26;;;;;;;68.75;66.15;;;1.30;95.80;;;;;;5048129;28;20512;-75
2023/01/19 06:11:56;;;;;;;68.53;66.00;;;1.30;95.80;;;;;;5047865;28;20037;-75
2023/01/19 06:14:22;;;;;;;74.97;72.22;;;1.30;95.80;;;;;;5047882;28;20395;-75
2023/01/19 06:16:48;;;;;;;68.18;65.68;;;1.30;95.80;;;;;;5031294;28;20082;-75
2023/01/19 06:19:13;;;;;;;67.53;65.03;;;1.40;95.80;;;;;;5047946;28;20397;-75
2023/01/19 06:21:39;;;;;;;69.10;66.50;;;1.40;95.80;;;;;;5048931;28;20028;-75
2023/01/19 06:24:05;;;;;;;67.85;65.35;;;1.40;95.80;;;;;;5048872;28;20056;-76
2023/01/19 06:26:31;;;;;;;66.57;64.07;;;1.40;95.80;;;;;;5046764;28;20044;-75
2023/01/19 06:28:56;;;;;;;61.00;58.70;;;1.50;95.80;;;;;;5031268;28;20029;-75
2023/01/19 06:31:22;;;;;;;63.20;60.90;;;1.50;95.90;;;;;;5031775;28;20037;-73
2023/01/19 06:33:48;;;;;;;56.10;54.00;;;1.50;95.90;;;;;;5047663;28;20033;-75
2023/01/19 06:36:14;;;;;;;;;;;1.60;96.00;;;;;;5049153;28;20057;-76
2023/01/19 06:38:40;;;;;;;53.13;51.13;;;1.70;96.00;;;;;;5030781;28;19940;-76
2023/01/19 06:41:05;;;;;;;53.47;51.47;;;1.80;95.90;;;;;;5048550;28;20466;-75
2023/01/19 06:43:31;;;;;;;53.88;51.88;;;1.90;95.90;;;;;;5047474;28;20029;-75
2023/01/19 06:45:59;;;;;;;53.67;51.67;;;1.90;96.00;;;;;;5048535;28;20112;-76
2023/01/19 06:48:25;;;;;;;49.35;47.55;;;2.00;96.00;;;;;;5047140;28;20362;-75
2023/01/19 06:50:50;;;;;;;48.10;46.30;;;2.00;95.90;;;;;;5030543;28;20032;-76
2023/01/19 06:53:18;;;;;;;45.25;43.55;;;2.10;95.90;;;;;;5048168;28;20397;-76
2023/01/19 06:55:44;;;;;;;49.42;47.63;;;2.20;96.00;;;;;;5046717;28;20017;-75
2023/01/19 06:58:11;;;;;;;45.95;44.25;;;2.20;96.00;;;;;;5047992;28;20452;-75
2023/01/19 07:00:37;;;;;;;;;;;2.20;95.90;;;;;;5046911;28;20075;-75
2023/01/19 07:03:06;;;;;;;44.38;42.75;;;2.30;96.00;;;;;;5046972;28;19909;-75
2023/01/19 07:05:33;;;;;;;45.03;43.33;;;2.30;95.90;;;;;;5046906;28;20032;-75
2023/01/19 07:07:59;;;;;;;45.70;44.00;;;2.30;95.90;;;;;;5046715;28;20547;-76
2023/01/19 07:10:25;;;;;;;45.75;44.05;;;2.30;95.90;;;;;;5046783;28;20029;-75
2023/01/19 07:12:50;;;;;;;45.40;43.70;;;2.30;95.90;;;;;;5047971;28;20386;-75
2023/01/19 07:15:21;;;;;;;43.53;41.92;;;2.30;95.90;;;;;;5030126;28;20038;-75
2023/01/19 07:17:47;;;;;;;45.72;44.03;;;2.30;95.90;;;;;;5046441;28;20182;-76
2023/01/19 07:20:13;;;;;;;44.47;42.83;;;2.40;95.90;;;;;;5047936;28;20394;-76
2023/01/19 07:22:40;;;;;;;43.35;41.75;;;2.30;95.90;;;;;;5013740;28;20091;-75
2023/01/19 07:25:06;;;;;;;42.75;41.15;;;2.30;95.90;;;;;;5047281;28;20025;-75
2023/01/19 07:27:32;;;;;;;43.03;41.42;;;2.40;95.90;;;;;;5047628;28;20025;-75
2023/01/19 07:29:59;;;;;;;41.40;39.90;;;2.40;95.90;;;;;;5047832;28;20468;-75
2023/01/19 07:32:26;;;;;;;43.35;41.75;;;2.40;96.10;;;;;;5046351;28;20082;-75
2023/01/19 07:34:52;;;;;;;44.72;43.05;;;2.40;95.90;;;;;;5047443;28;20079;-75
2023/01/19 07:37:18;;;;;;;42.72;41.13;;;2.40;95.90;;;;;;5047452;28;20025;-75
2023/01/19 07:39:43;;;;;;;41.47;39.97;;;2.40;95.90;;;;;;5045890;28;20115;-75
2023/01/19 07:42:09;;;;;;;40.63;39.13;;;2.40;95.90;;;;;;5046330;28;20469;-75
2023/01/19 07:44:35;;;;;;;41.38;39.88;;;2.40;96.00;;;;;;5046465;28;20037;-75
2023/01/19 07:47:02;;;;;;;38.80;37.40;;;2.40;96.00;;;;;;5029454;28;20120;-75
2023/01/19 07:49:27;;;;;;;37.28;35.88;;;2.40;96.00;;;;;;5029914;28;20037;-75
2023/01/19 07:51:55;;;;;;;39.95;38.45;;;2.40;96.00;;;;;;5029524;28;20044;-75
2023/01/19 07:54:21;;;;;;;39.80;38.30;;;2.40;96.00;;;;;;5029838;28;20477;-76
2023/01/19 07:56:46;;;;;;;39.50;38.00;;;2.40;96.00;;;;;;5045997;28;20059;-76
2023/01/19 07:59:12;;;;;;;37.38;35.97;;;2.40;96.00;;;;;;5046728;28;20045;-76
2023/01/19 08:01:38;;;;;;;39.38;37.88;;;2.50;96.00;;;;;;5047889;28;20021;-75
2023/01/19 08:04:04;;;;;;;39.13;37.65;;;2.50;96.00;;;;;;5046003;28;20060;-76
2023/01/19 08:06:33;;;;;;;40.03;38.53;;;2.50;96.00;;;;;;5046012;28;20029;-75
2023/01/19 08:08:59;;;;;;;38.67;37.28;;;2.50;96.00;;;;;;5045609;28;20029;-74
2023/01/19 08:11:25;;;;;;;40.75;39.25;;;2.50;95.90;;;;;;5029278;28;20366;-75
2023/01/19 08:13:51;;;;;;;42.75;41.15;;;2.50;95.90;;;;;;5047009;28;20078;-75
2023/01/19 08:16:16;;;;;;;43.47;41.88;;;2.40;95.90;;;;;;5047114;28;20156;-75
2023/01/19 08:18:42;;;;;;;43.40;41.80;;;2.40;95.80;;;;;;5046974;28;20040;-76
2023/01/19 08:21:08;;;;;;;43.97;42.38;;;2.40;95.90;;;;;;5045577;28;20497;-75
2023/01/19 08:23:34;;;;;;;45.00;43.33;;;2.30;95.90;;;;;;5046839;28;20393;-76
2023/01/19 08:26:00;;;;;;;45.50;43.80;;;2.30;95.90;;;;;;5046839;28;20061;-75
2023/01/19 08:28:26;;;;;;;44.13;42.50;;;2.20;95.90;;;;;;5045328;28;20493;-75
2023/01/19 08:30:54;;;;;;;43.60;42.00;;;2.20;96.00;;;;;;5045125;28;20043;-75
2023/01/19 08:33:21;;;;;;;43.13;41.53;;;2.20;96.00;;;;;;5045387;28;20033;-76
2023/01/19 08:35:49;;;;;;;42.88;41.28;;;2.30;96.10;;;;;;5045345;28;20020;-75
2023/01/19 08:38:15;;;;;;;44.47;42.78;;;2.30;96.10;;;;;;5045443;28;20029;-73
2023/01/19 08:40:41;;;;;;;44.83;43.13;;;2.40;96.00;;;;;;5046575;28;20366;-75
2023/01/19 08:43:12;;;;;;;43.90;42.30;;;2.40;96.00;;;;;;5046605;28;20105;-75
2023/01/19 08:45:45;;;;;;;43.58;41.97;;;2.40;96.00;;;;;;5046906;28;20021;-76
2023/01/19 08:48:12;;;;;;;42.55;40.95;;;2.40;96.00;;;;;;5045594;28;20370;-75
2023/01/19 08:50:38;;;;;;;41.80;40.20;;;2.50;96.00;;;;;;5048251;28;20199;-75
2023/01/19 08:53:07;;;;;;;40.65;39.15;;;2.50;96.00;;;;;;5049786;28;20021;-76
2023/01/19 08:55:36;;;;;;;40.95;39.45;;;2.60;96.10;;;;;;5050140;28;20033;-75
2023/01/19 08:58:03;;;;;;;37.90;36.50;;;2.60;96.00;;;;;;5032173;28;20053;-75
2023/01/19 09:00:30;;;;;;;39.40;37.90;;;2.60;96.00;;;;;;5050223;28;20082;-75
2023/01/19 09:02:56;;;;;;;38.45;37.05;;;2.70;96.00;;;;;;5050456;28;20024;-75
2023/01/19 09:05:23;;;;;;;39.35;37.85;;;2.70;96.00;;;;;;5050878;28;20029;-75
2023/01/19 09:07:50;;;;;;;;;;;2.70;96.10;;;;;;5033899;28;20074;-75
2023/01/19 09:10:16;;;;;;;36.70;35.30;;;2.70;96.10;;;;;;5050167;28;19912;-74
2023/01/19 09:12:43;;;;;;;;;;;2.80;96.10;;;;;;5042039;28;20032;-75
2023/01/19 09:15:12;;;;;;;37.30;35.90;;;2.90;96.10;;;;;;5040870;28;20007;-73
2023/01/19 09:17:40;;;;;;;37.97;36.58;;;2.90;96.10;;;;;;5043859;28;20401;-74
2023/01/19 09:20:06;;;;;;;38.92;37.50;;;3.00;96.10;;;;;;5038074;28;20013;-74
2023/01/19 09:22:32;;;;;;;37.97;36.58;;;3.00;96.10;;;;;;5029749;28;20030;-74
2023/01/19 09:24:58;;;;;;;36.40;35.00;;;3.10;96.10;;;;;;5014113;28;20086;-74
2023/01/19 09:27:24;;;;;;;;;;;3.10;96.10;;;;;;5019268;28;20027;-73
2023/01/19 09:29:52;;;;;;;33.78;32.47;;;3.10;96.10;;;;;;5038667;28;19912;-74
2023/01/19 09:32:20;;;;;;;32.55;31.35;;;3.20;96.10;;;;;;5039289;28;20116;-74
2023/01/19 09:34:46;;;;;;;34.65;33.35;;;3.20;96.10;;;;;;5041452;28;20029;-74
2023/01/19 09:37:12;;;;;;;33.17;31.92;;;3.30;96.20;;;;;;5039214;28;20031;-74
2023/01/19 09:39:38;;;;;;;31.80;30.60;;;3.30;96.10;;;;;;5037662;28;20396;-75
2023/01/19 09:42:30;;;;;;;30.27;29.10;;;3.30;96.20;;;;;;5045346;28;20037;-75
2023/01/19 09:44:55;;;;;;;29.10;28.00;;;3.50;96.40;;;;;;5041147;28;20024;-76
2023/01/19 09:47:26;;;;;;;28.40;27.30;;;3.60;96.30;;;;;;5037127;28;20070;-75
2023/01/19 09:50:02;;;;;;;29.90;28.77;;;3.70;96.30;;;;;;5040938;28;20030;-75
2023/01/19 09:52:31;;;;;;;31.10;29.90;;;3.70;96.20;;;;;;5038711;28;20078;-75
2023/01/19 09:54:57;;;;;;;30.75;29.55;;;3.60;96.10;;;;;;5039492;28;20075;-75
2023/01/19 09:57:24;;;;;;;;;;;3.60;96.10;;;;;;5039356;28;20025;-76
2023/01/19 09:59:50;;;;;;;23.15;22.25;;;3.60;96.20;;;;;;5040267;28;19960;-74
2023/01/19 10:02:22;;;;;;;;;;;3.80;96.90;;;;;;5039601;28;20025;-76
2023/01/19 10:05:22;;;;;;;10.18;9.68;;;4.60;98.00;;;;;;5033583;28;19920;-76
2023/01/19 10:08:25;;;;;;;8.48;8.07;;;5.70;98.30;;;;;;5039792;28;20032;-76
2023/01/19 10:10:53;;;;;;;6.00;5.70;;;6.80;98.10;;;;;;5032415;28;20034;-74
2023/01/19 10:13:47;;;;;;;4.78;4.47;;;7.70;97.80;;;;;;5029563;28;20029;-76
2023/01/19 10:16:32;;;;;;;2.15;1.98;;;8.30;97.60;;;;;;5030492;28;20029;-75
2023/01/19 10:19:18;;;;;;;0.50;0.50;;;9.10;97.60;;;;;;5039944;28;20076;-75
2023/01/19 10:21:45;;;;;;;0.40;0.40;;;9.80;97.80;;;;;;5025470;28;20038;-76
2023/01/19 10:24:24;;;;;;;0.20;0.20;;;10.30;97.70;;;;;;5038466;28;20482;-74
2023/01/19 10:26:53;;;;;;;0.10;0.10;;;10.80;97.70;;;;;;5037933;28;20021;-75
2023/01/19 10:29:38;;;;;;;0.10;0.10;;;11.20;97.60;;;;;;5049132;28;20341;-76
2023/01/19 10:32:10;;;;;;;0.10;0.10;;;11.50;97.40;;;;;;5047282;28;20024;-75
2023/01/19 10:34:36;;;;;;;0.00;0.00;;;11.80;97.30;;;;;;5033248;28;20075;-74
2023/01/19 10:37:23;;;;;;;0.10;0.10;;;11.90;97.10;;;;;;5040008;28;20029;-75
2023/01/19 10:39:59;;;;;;;0.00;0.00;;;11.90;97.00;;;;;;5036211;28;20021;-76
2023/01/19 10:42:29;;;;;;;0.10;0.10;;;12.00;97.10;;;;;;5034153;28;20111;-75
2023/01/19 10:44:54;;;;;;;0.10;0.10;;;12.20;97.40;;;;;;5042650;28;20314;-75
2023/01/19 10:47:26;;;;;;;0.22;0.22;;;12.50;97.90;;;;;;5033872;28;20025;-76
2023/01/19 10:49:52;;;;;;;0.00;0.00;;;13.00;97.90;;;;;;5041069;28;20084;-76
2023/01/19 10:52:30;;;;;;;0.00;0.00;;;13.40;97.90;;;;;;5045011;28;20021;-75
2023/01/19 10:54:58;;;;;;;0.00;0.00;;;13.60;97.70;;;;;;5033400;28;20025;-75
2023/01/19 10:57:37;;;;;;;0.00;0.00;;;13.80;97.50;;;;;;5034595;28;20401;-75
2023/01/19 11:00:05;;;;;;;0.00;0.00;;;14.00;97.50;;;;;;5038407;28;20031;-74
2023/01/19 11:02:32;;;;;;;0.00;0.00;;;14.20;97.30;;;;;;5040124;28;20014;-75
2023/01/19 11:05:00;;;;;;;0.00;0.00;;;14.40;97.50;;;;;;5049244;28;20121;-73
2023/01/19 11:07:28;;;;;;;0.00;0.00;;;14.70;97.60;;;;;;5048917;28;20029;-73
2023/01/19 11:10:16;;;;;;;0.10;0.10;;;14.90;97.30;;;;;;5048891;28;20029;-72
2023/01/19 11:12:44;;;;;;;0.00;0.00;;;15.10;97.50;;;;;;5045129;28;20132;-75
2023/01/19 11:15:27;;;;;;;0.00;0.00;;;15.50;97.70;;;;;;5049165;28;20025;-75
2023/01/19 11:17:53;;;;;;;0.10;0.10;;;15.50;97.10;;;;;;5049855;28;20156;-75
2023/01/19 11:20:22;;;;;;;0.00;0.00;;;15.40;97.50;;;;;;5047371;28;20058;-75
2023/01/19 11:23:02;;;;;;;0.00;0.00;;;15.30;97.20;;;;;;5046816;28;20544;-75
2023/01/19 11:25:31;;;;;;;0.00;0.00;;;14.90;97.10;;;;;;5048298;28;20055;-74
2023/01/19 11:27:57;;;;;;;0.00;0.00;;;14.50;97.50;;;;;;5048256;28;20021;-70
2023/01/19 11:30:25;;;;;;;0.00;0.00;;;14.40;97.50;;;;;;5046731;28;20048;-74
2023/01/19 11:32:51;;;;;;;0.00;0.00;;;14.40;97.60;;;;;;5048304;28;20469;-74
2023/01/19 11:35:38;;;;;;;0.00;0.00;;;14.30;97.70;;;;;;5047823;28;20029;-74
2023/01/19 11:38:26;;;;;;;0.00;0.00;;;14.40;97.90;;;;;;5047736;28;20029;-73
2023/01/19 11:40:54;;;;;;;0.00;0.00;;;14.60;98.10;;;;;;5048144;28;20115;-75
2023/01/19 11:43:27;;;;;;;0.13;0.10;;;14.80;98.20;;;;;;5048472;28;20025;-72
2023/01/19 11:45:54;;;;;;;0.00;0.00;;;14.80;98.00;;;;;;5046652;28;20233;-74
2023/01/19 11:48:36;;;;;;;0.00;0.00;;;14.90;98.20;;;;;;5048549;28;20351;-73
2023/01/19 11:51:04;;;;;;;0.00;0.00;;;15.10;98.30;;;;;;5047194;28;20021;-72
2023/01/19 11:53:34;;;;;;;0.00;0.00;;;15.10;98.30;;;;;;5048262;28;20101;-74
2023/01/19 11:56:12;;;;;;;0.00;0.00;;;15.30;98.40;;;;;;5048327;28;20021;-74
2023/01/19 11:58:46;;;;;;;0.00;0.00;;;15.30;98.00;;;;;;5046101;28;20123;-76
2023/01/19 12:01:31;;;;;;;0.00;0.00;;;15.10;97.70;;;;;;5047117;28;20448;-73
2023/01/19 12:04:13;;;;;;;0.00;0.00;;;14.90;97.80;;;;;;5039554;28;20397;-75
2023/01/19 12:06:43;;;;;;;0.00;0.00;;;14.80;98.10;;;;;;5033667;28;20029;-74
2023/01/19 12:09:09;;;;;;;0.00;0.00;;;14.70;98.10;;;;;;5031007;28;20104;-74
2023/01/19 12:11:42;;;;;;;0.00;0.00;;;14.80;98.40;;;;;;5033502;28;20113;-75
2023/01/19 12:14:25;;;;;;;0.00;0.00;;;14.80;98.40;;;;;;5034892;28;20369;-75
2023/01/19 12:16:54;;;;;;;0.00;0.00;;;14.90;98.30;;;;;;5046735;28;20100;-74
2023/01/19 12:19:26;;;;;;;0.00;0.00;;;14.90;98.40;;;;;;5049052;28;20140;-72
2023/01/19 12:21:52;;;;;;;0.15;0.10;;;15.00;98.50;;;;;;5048384;28;20189;-75
2023/01/19 12:24:34;;;;;;;0.00;0.00;;;15.10;98.60;;;;;;5048646;28;20029;-74
2023/01/19 12:27:06;;;;;;;0.00;0.00;;;15.20;98.70;;;;;;5052221;28;20025;-75
2023/01/19 12:29:34;;;;;;;0.00;0.00;;;15.20;98.40;;;;;;5052539;28;20025;-74
2023/01/19 12:32:12;;;;;;;0.00;0.00;;;15.10;98.20;;;;;;5052067;28;20025;-74
2023/01/19 12:34:44;;;;;;;0.00;0.00;;;15.10;98.40;;;;;;5052175;28;20037;-73
2023/01/19 12:37:41;;;;;;;0.00;0.00;;;15.10;98.80;;;;;;5052546;28;20033;-74
2023/01/19 12:40:24;;;;;;;0.00;0.00;;;15.10;98.90;;;;;;5052231;28;20108;-74
2023/01/19 12:43:00;;;;;;;0.00;0.00;;;15.10;98.50;;;;;;5051957;28;20131;-71
2023/01/19 12:45:46;;;;;;;0.00;0.00;;;14.90;98.30;;;;;;5052383;28;20074;-74
2023/01/19 12:48:26;;;;;;;0.32;0.10;;;14.60;98.30;;;;;;5051977;28;20079;-73
2023/01/19 12:50:51;;;;;;;0.00;0.00;;;14.30;97.70;;;;;;5051888;28;20033;-74
2023/01/19 12:53:21;;;;;;;0.00;0.00;;;13.70;96.60;;;;;;5051626;28;20091;-74
2023/01/19 12:55:58;;;;;;;0.00;0.00;;;12.90;96.40;;;;;;5050540;28;20075;-74
2023/01/19 12:58:25;;;;;;;0.00;0.00;;;12.10;96.30;;;;;;5050881;28;20056;-72